Time;durP1;ratioP1;P1;durP2;ratioP2;P2;SDS_P1;SDS_P2;PMS_P1;PMS_P2;Temp;Humidity;BMP_temperature;BMP_pressure;BME280_temperature;BME280_humidity;BME280_pressure;Samples;Min_cycle;Max_cycle;Signal;HPM_P1;HPM_P2
2023/02/09 00:00:37;;;;;;;1999.90;999.90;;;0.20;99.90;;;;;;5072101;28;20029;-80
2023/02/09 00:03:02;;;;;;;1999.90;999.90;;;0.20;99.90;;;;;;5072197;28;20510;-80
2023/02/09 00:05:28;;;;;;;1999.90;999.90;;;0.10;99.90;;;;;;5071738;28;20024;-72
2023/02/09 00:07:53;;;;;;;1999.90;999.90;;;0.10;99.90;;;;;;5072276;28;20060;-79
2023/02/09 00:10:19;;;;;;;1999.90;999.90;;;0.00;99.90;;;;;;5071978;28;20022;-80
2023/02/09 00:15:29;;;;;;;1999.90;999.90;;;-0.10;99.90;;;;;;5072196;28;20498;-72
2023/02/09 00:17:55;;;;;;;1999.90;999.90;;;-0.20;99.90;;;;;;5072289;28;20056;-72
2023/02/09 00:20:20;;;;;;;1999.90;999.90;;;-0.20;99.90;;;;;;5071963;28;20500;-72
2023/02/09 00:22:46;;;;;;;1999.90;999.90;;;-0.20;99.90;;;;;;5071957;28;20021;-72
2023/02/09 00:25:12;;;;;;;1999.90;999.90;;;-0.10;99.90;;;;;;5071817;28;20068;-80
2023/02/09 00:27:37;;;;;;;1999.90;999.90;;;-0.10;99.90;;;;;;5072235;28;20024;-71
2023/02/09 00:30:03;;;;;;;1999.90;999.90;;;-0.10;99.90;;;;;;5071950;28;20020;-72
2023/02/09 00:32:31;;;;;;;1999.90;999.90;;;-0.10;99.90;;;;;;5053896;28;20115;-79
2023/02/09 00:34:57;;;;;;;1999.90;999.90;;;-0.10;99.90;;;;;;5071824;28;20025;-72
2023/02/09 00:37:22;;;;;;;1999.90;999.90;;;-0.10;99.90;;;;;;5078559;28;20027;-72
2023/02/09 00:39:48;;;;;;;1999.90;999.90;;;-0.10;99.90;;;;;;5092028;28;20020;-80
2023/02/09 00:42:13;;;;;;;1999.90;999.90;;;-0.10;99.90;;;;;;5092030;28;20020;-80
2023/02/09 00:44:40;;;;;;;1999.90;999.90;;;-0.20;99.90;;;;;;5091832;28;20099;-72
2023/02/09 00:47:07;;;;;;;1999.90;999.90;;;-0.20;99.90;;;;;;5091570;28;20024;-79
2023/02/09 00:49:32;;;;;;;1999.90;999.90;;;-0.20;99.90;;;;;;5092678;28;20149;-80
2023/02/09 00:51:58;;;;;;;1999.90;999.90;;;-0.30;99.90;;;;;;5085944;28;20060;-72
2023/02/09 00:54:24;;;;;;;1999.90;999.90;;;-0.30;99.90;;;;;;5075402;28;20027;-72
2023/02/09 00:56:50;;;;;;;1999.90;999.90;;;-0.20;99.90;;;;;;5075438;28;20028;-72
2023/02/09 00:59:16;;;;;;;1999.90;999.90;;;-0.20;99.90;;;;;;5075447;28;20031;-72
2023/02/09 01:01:42;;;;;;;1999.90;999.90;;;-0.30;99.90;;;;;;5081240;28;20103;-72
2023/02/09 01:04:07;;;;;;;1999.90;999.90;;;-0.30;99.90;;;;;;5095830;28;20559;-72
2023/02/09 01:06:33;;;;;;;1999.90;999.90;;;-0.40;99.90;;;;;;5095374;28;20036;-72
2023/02/09 01:08:59;;;;;;;1999.90;999.90;;;-0.40;99.90;;;;;;5095615;28;20029;-72
2023/02/09 01:11:27;;;;;;;1999.90;999.90;;;-0.50;99.90;;;;;;5095784;28;20020;-72
2023/02/09 01:13:56;;;;;;;1999.90;999.90;;;-0.50;99.90;;;;;;5095852;28;20024;-72
2023/02/09 01:16:22;;;;;;;1999.90;999.90;;;-0.60;99.90;;;;;;5094995;28;20031;-80
2023/02/09 01:18:47;;;;;;;1999.90;999.90;;;-0.60;99.90;;;;;;5095310;28;20040;-72
2023/02/09 01:21:17;;;;;;;1999.90;999.90;;;-0.70;99.90;;;;;;5095301;28;20505;-72
2023/02/09 01:23:43;;;;;;;1999.90;999.90;;;-0.70;99.90;;;;;;5095274;28;20039;-72
2023/02/09 01:26:10;;;;;;;1999.90;999.90;;;-0.70;99.90;;;;;;5095448;28;20027;-72
2023/02/09 01:28:37;;;;;;;1999.90;999.90;;;-0.70;99.90;;;;;;5095281;28;20053;-72
2023/02/09 01:31:04;;;;;;;1999.90;999.90;;;-0.60;99.90;;;;;;5095000;28;20043;-71
2023/02/09 01:33:31;;;;;;;1999.90;999.90;;;-0.60;99.90;;;;;;5095346;28;20037;-72
2023/02/09 01:36:03;;;;;;;1999.90;999.90;;;-0.60;99.90;;;;;;5095541;28;20062;-72
2023/02/09 01:38:29;;;;;;;1999.90;999.90;;;-0.60;99.90;;;;;;5094756;28;20508;-72
2023/02/09 01:40:55;;;;;;;1999.90;999.90;;;-0.60;99.90;;;;;;5094982;28;20063;-71
2023/02/09 01:43:21;;;;;;;1999.90;999.90;;;-0.60;99.90;;;;;;5076850;28;20063;-72
2023/02/09 01:45:53;;;;;;;1999.90;999.90;;;-0.60;99.90;;;;;;5087099;28;20049;-80
2023/02/09 01:48:24;;;;;;;1999.90;999.90;;;-0.60;99.90;;;;;;5074865;28;20013;-71
2023/02/09 01:50:53;;;;;;;1999.90;999.90;;;-0.60;99.90;;;;;;5073918;28;20403;-72
2023/02/09 01:53:19;;;;;;;1999.90;999.90;;;-0.70;99.90;;;;;;5074173;28;20021;-71
2023/02/09 01:55:58;;;;;;;1999.90;999.90;;;-0.80;99.90;;;;;;5075764;28;20016;-80
2023/02/09 01:58:25;;;;;;;1999.90;999.90;;;-0.90;99.90;;;;;;5074701;28;20029;-72
2023/02/09 02:00:51;;;;;;;1999.90;999.90;;;-0.90;99.90;;;;;;5073966;28;20028;-71
2023/02/09 02:03:21;;;;;;;1999.90;999.90;;;-1.00;99.90;;;;;;5073660;28;20516;-72
2023/02/09 02:05:51;;;;;;;1999.90;999.90;;;-0.90;99.90;;;;;;5074166;28;20058;-80
2023/02/09 02:08:40;;;;;;;1999.90;999.90;;;-0.90;99.90;;;;;;5074747;28;20131;-71
2023/02/09 02:11:07;;;;;;;1999.90;999.90;;;-0.90;99.90;;;;;;5074143;28;20055;-79
2023/02/09 02:13:33;;;;;;;1999.90;999.90;;;-0.90;99.90;;;;;;5074425;28;20031;-71
2023/02/09 02:16:04;;;;;;;1999.90;999.90;;;-0.90;99.90;;;;;;5074214;28;20036;-71
2023/02/09 02:18:54;;;;;;;1999.90;999.90;;;-0.90;99.90;;;;;;5074069;28;20039;-71
2023/02/09 02:21:49;;;;;;;1999.90;999.90;;;-0.90;99.90;;;;;;5072584;28;20039;-80
2023/02/09 02:24:46;;;;;;;1999.90;999.90;;;-1.00;99.90;;;;;;5074188;28;20024;-80
2023/02/09 02:27:39;;;;;;;1999.90;999.90;;;-1.00;99.90;;;;;;5073825;28;20016;-72
2023/02/09 02:30:25;;;;;;;1999.90;999.90;;;-1.00;99.90;;;;;;5073727;28;20071;-72
2023/02/09 02:33:06;;;;;;;1999.90;999.90;;;-1.00;99.90;;;;;;5073734;28;20050;-71
2023/02/09 02:35:53;;;;;;;1999.90;999.90;;;-1.00;99.90;;;;;;5073856;28;20048;-71
2023/02/09 02:38:31;;;;;;;1999.90;999.90;;;-1.00;99.90;;;;;;5069620;28;20020;-71
2023/02/09 02:41:02;;;;;;;1999.90;999.90;;;-1.00;99.90;;;;;;5075034;28;20400;-72
2023/02/09 02:44:01;;;;;;;1999.90;999.90;;;-1.00;99.90;;;;;;5093800;28;20074;-72
2023/02/09 02:46:58;;;;;;;1999.90;999.90;;;-1.00;99.90;;;;;;5093276;28;20075;-80
2023/02/09 02:49:42;;;;;;;1999.90;999.90;;;-1.00;99.90;;;;;;5093672;28;20107;-80
2023/02/09 02:52:09;;;;;;;1999.90;999.90;;;-0.90;99.90;;;;;;5081697;28;20397;-71
2023/02/09 02:54:51;;;;;;;1999.90;999.90;;;-0.90;99.90;;;;;;5055336;28;20119;-71
2023/02/09 02:57:21;;;;;;;1999.90;999.90;;;-0.90;99.90;;;;;;5073203;28;20021;-72
2023/02/09 03:00:11;;;;;;;1999.90;999.90;;;-0.90;99.90;;;;;;5073330;28;20477;-79
2023/02/09 03:02:41;;;;;;;1999.90;999.90;;;-0.80;99.90;;;;;;5072733;28;20038;-71
2023/02/09 03:05:08;;;;;;;1999.90;999.90;;;-0.80;99.90;;;;;;5072892;28;20020;-79
2023/02/09 03:07:34;;;;;;;1999.90;999.90;;;-0.80;99.90;;;;;;5054717;28;20082;-72
2023/02/09 03:10:00;;;;;;;1999.90;999.90;;;-0.70;99.90;;;;;;5073219;28;20040;-71
2023/02/09 03:12:48;;;;;;;1999.90;999.90;;;-0.80;99.90;;;;;;5072679;28;20031;-72
2023/02/09 03:15:31;;;;;;;1999.90;999.90;;;-0.80;99.90;;;;;;5073028;28;20060;-71
2023/02/09 03:18:18;;;;;;;1999.90;999.90;;;-0.80;99.90;;;;;;5073236;28;20029;-72
2023/02/09 03:20:51;;;;;;;1999.90;999.90;;;-0.80;99.90;;;;;;5072832;28;20036;-72
2023/02/09 03:23:31;;;;;;;1999.90;999.90;;;-0.80;99.90;;;;;;5072669;28;20389;-71
2023/02/09 03:26:00;;;;;;;1999.90;999.90;;;-0.80;99.90;;;;;;5073114;28;20500;-79
2023/02/09 03:28:30;;;;;;;1999.90;999.90;;;-0.80;99.90;;;;;;5072760;28;20017;-71
2023/02/09 03:30:57;;;;;;;1999.90;999.90;;;-0.90;99.90;;;;;;5072468;28;20020;-71
2023/02/09 03:33:27;;;;;;;1999.90;999.90;;;-0.90;99.90;;;;;;5071496;28;20027;-72
2023/02/09 03:35:55;;;;;;;1999.90;999.90;;;-1.00;99.90;;;;;;5072743;28;20128;-72
2023/02/09 03:38:21;;;;;;;1999.90;999.90;;;-1.00;99.90;;;;;;5068860;28;20028;-80
2023/02/09 03:40:47;;;;;;;1999.90;999.90;;;-1.10;99.90;;;;;;5092631;28;20492;-71
2023/02/09 03:43:13;;;;;;;1999.90;999.90;;;-1.10;99.90;;;;;;5092369;28;20020;-72
2023/02/09 03:45:39;;;;;;;1999.90;999.90;;;-1.20;99.90;;;;;;5092501;28;20071;-72
2023/02/09 03:48:05;;;;;;;1999.90;999.90;;;-1.20;99.90;;;;;;5092873;28;20032;-79
2023/02/09 03:50:33;;;;;;;1999.90;999.90;;;-1.20;99.90;;;;;;5092694;28;20024;-72
2023/02/09 03:52:59;;;;;;;1999.90;999.90;;;-1.30;99.90;;;;;;5073993;28;20024;-79
2023/02/09 03:55:25;;;;;;;1999.90;999.90;;;-1.30;99.90;;;;;;5072329;28;20393;-72
2023/02/09 03:57:51;;;;;;;1999.90;999.90;;;-1.30;99.90;;;;;;5054593;28;20033;-72
2023/02/09 04:00:17;;;;;;;1999.90;999.90;;;-1.30;99.90;;;;;;5070964;28;20024;-72
2023/02/09 04:02:43;;;;;;;1999.90;999.90;;;-1.20;99.90;;;;;;5072116;28;20025;-72
2023/02/09 04:05:09;;;;;;;1999.90;999.90;;;-1.20;99.90;;;;;;5071890;28;20028;-80
2023/02/09 04:07:35;;;;;;;1999.90;999.90;;;-1.20;99.90;;;;;;5070249;28;20442;-71
2023/02/09 04:10:02;;;;;;;1999.90;999.90;;;-1.20;99.90;;;;;;5072379;28;20117;-72
2023/02/09 04:12:27;;;;;;;1999.90;999.90;;;-1.30;99.90;;;;;;5072129;28;20028;-72
2023/02/09 04:14:53;;;;;;;1999.90;999.90;;;-1.30;99.90;;;;;;5072079;28;20082;-71
2023/02/09 04:17:19;;;;;;;1999.90;999.90;;;-1.30;99.90;;;;;;5071431;28;20439;-79
2023/02/09 04:19:44;;;;;;;1999.90;999.90;;;-1.20;99.90;;;;;;5072462;28;20033;-72
2023/02/09 04:22:10;;;;;;;1999.90;999.90;;;-1.20;99.90;;;;;;5071994;28;20103;-72
2023/02/09 04:24:35;;;;;;;1999.90;999.90;;;-1.30;99.90;;;;;;5072467;28;20035;-72
2023/02/09 04:27:01;;;;;;;1999.90;999.90;;;-1.30;99.90;;;;;;5076111;28;20572;-79
2023/02/09 04:29:27;;;;;;;1999.90;999.90;;;-1.30;99.90;;;;;;5074921;28;20021;-72
2023/02/09 04:31:52;;;;;;;1999.90;999.90;;;-1.40;99.90;;;;;;5076081;28;20028;-80
2023/02/09 04:34:20;;;;;;;1999.90;999.90;;;-1.40;99.90;;;;;;5076141;28;20028;-72
2023/02/09 04:36:45;;;;;;;1999.90;999.90;;;-1.50;99.90;;;;;;5077286;28;20070;-71
2023/02/09 04:39:11;;;;;;;1999.90;999.90;;;-1.50;99.90;;;;;;5095732;28;20400;-72
2023/02/09 04:41:37;;;;;;;1999.90;999.90;;;-1.60;99.90;;;;;;5096187;28;20165;-72
2023/02/09 04:44:03;;;;;;;1999.90;999.90;;;-1.60;99.90;;;;;;5077809;28;20031;-72
2023/02/09 04:46:28;;;;;;;1999.90;999.90;;;-1.60;99.90;;;;;;5095711;28;20055;-80
2023/02/09 04:48:54;;;;;;;1999.90;999.90;;;-1.70;99.90;;;;;;5095895;28;20027;-72
2023/02/09 04:51:20;;;;;;;1999.90;999.90;;;-1.70;99.90;;;;;;5091266;28;20021;-72
2023/02/09 04:53:45;;;;;;;1999.90;999.90;;;-1.70;99.90;;;;;;5075714;28;20032;-72
2023/02/09 04:56:15;;;;;;;1999.90;999.90;;;-1.70;99.90;;;;;;5075901;28;20029;-79
2023/02/09 05:01:27;;;;;;;1999.90;999.90;;;-1.70;99.90;;;;;;5075874;28;20027;-72
2023/02/09 05:03:53;;;;;;;1999.90;999.90;;;-1.70;99.90;;;;;;5075675;28;20027;-72
2023/02/09 05:06:19;;;;;;;1999.90;999.90;;;-1.70;99.90;;;;;;5075788;28;20028;-72
2023/02/09 05:08:45;;;;;;;1999.90;999.90;;;-1.70;99.90;;;;;;5073469;28;20401;-72
2023/02/09 05:11:11;;;;;;;1999.90;999.90;;;-1.60;99.90;;;;;;5075235;28;20025;-80
2023/02/09 05:13:37;;;;;;;1999.90;999.90;;;-1.60;99.90;;;;;;5075408;28;20020;-80
2023/02/09 05:16:12;;;;;;;1999.90;999.90;;;-1.60;99.90;;;;;;5057349;28;20031;-72
2023/02/09 05:18:38;;;;;;;1999.90;999.90;;;-1.60;99.90;;;;;;5075046;28;20092;-72
2023/02/09 05:21:04;;;;;;;1999.90;999.90;;;-1.50;99.90;;;;;;5074508;28;20127;-72
2023/02/09 05:23:30;;;;;;;1999.90;999.90;;;-1.50;99.90;;;;;;5074851;28;20437;-78
2023/02/09 05:25:56;;;;;;;1999.90;999.90;;;-1.60;99.90;;;;;;5075592;28;20045;-79
2023/02/09 05:28:22;;;;;;;1999.90;999.90;;;-1.60;99.90;;;;;;5075100;28;20025;-72
2023/02/09 05:30:52;;;;;;;1999.90;999.90;;;-1.60;99.90;;;;;;5073689;28;20074;-72
2023/02/09 05:33:21;;;;;;;1999.90;999.90;;;-1.60;99.90;;;;;;5074872;28;20028;-72
2023/02/09 05:35:47;;;;;;;1999.90;999.90;;;-1.60;99.90;;;;;;5056589;28;20028;-80
2023/02/09 05:38:13;;;;;;;1999.90;999.90;;;-1.70;99.90;;;;;;5088156;28;20361;-79
2023/02/09 05:40:38;;;;;;;1999.90;999.90;;;-1.70;99.90;;;;;;5091422;28;20023;-72
2023/02/09 05:43:04;;;;;;;1999.90;999.90;;;-1.70;99.90;;;;;;5094584;28;20103;-72
2023/02/09 05:45:29;;;;;;;1999.90;999.90;;;-1.80;99.90;;;;;;5094683;28;20032;-72
2023/02/09 05:47:55;;;;;;;1999.90;999.90;;;-1.80;99.90;;;;;;5076832;28;20016;-72
2023/02/09 05:50:21;;;;;;;1999.90;999.90;;;-1.80;99.90;;;;;;5094698;28;20472;-80
2023/02/09 05:52:47;;;;;;;1999.90;999.90;;;-1.90;99.90;;;;;;5089395;28;20058;-79
2023/02/09 05:55:12;;;;;;;1999.90;999.90;;;-1.90;99.90;;;;;;5094536;28;20088;-72
2023/02/09 05:57:38;;;;;;;1999.90;999.90;;;-1.90;99.90;;;;;;5094681;28;20032;-72
2023/02/09 06:00:05;;;;;;;1999.90;999.90;;;-2.00;99.90;;;;;;5094762;28;20021;-72
2023/02/09 06:02:31;;;;;;;1999.90;999.90;;;-1.90;99.90;;;;;;5094247;28;20492;-80
2023/02/09 06:04:56;;;;;;;1999.90;999.90;;;-2.00;99.90;;;;;;5094148;28;20031;-80
2023/02/09 06:07:22;;;;;;;1999.90;999.90;;;-2.00;99.90;;;;;;5094108;28;20032;-70
2023/02/09 06:09:48;;;;;;;1999.90;999.90;;;-2.10;99.90;;;;;;5093896;28;20028;-72
2023/02/09 06:12:13;;;;;;;1999.90;999.90;;;-2.10;99.90;;;;;;5093033;28;20035;-72
2023/02/09 06:14:39;;;;;;;1999.90;999.90;;;-2.10;99.90;;;;;;5092843;28;20035;-80
2023/02/09 06:17:05;;;;;;;1999.90;999.90;;;-2.10;99.90;;;;;;5093847;28;20036;-80
2023/02/09 06:19:30;;;;;;;1999.90;999.90;;;-2.00;99.90;;;;;;5094110;28;20036;-72
2023/02/09 06:21:56;;;;;;;1999.90;999.90;;;-2.00;99.90;;;;;;5092905;28;20036;-72
2023/02/09 06:24:21;;;;;;;1999.90;999.90;;;-2.10;99.90;;;;;;5093886;28;20038;-72
2023/02/09 06:26:47;;;;;;;1999.90;999.90;;;-2.10;99.90;;;;;;5094112;28;20035;-72
2023/02/09 06:29:13;;;;;;;1999.90;999.90;;;-2.10;99.90;;;;;;5093875;28;20028;-72
2023/02/09 06:31:40;;;;;;;1999.90;999.90;;;-1.90;99.90;;;;;;5094042;28;20036;-72
2023/02/09 06:34:06;;;;;;;1999.90;999.90;;;-1.80;99.90;;;;;;5090169;28;20028;-72
2023/02/09 06:36:32;;;;;;;1999.90;999.90;;;-1.70;99.90;;;;;;5080278;28;20028;-72
2023/02/09 06:38:58;;;;;;;1999.90;999.90;;;-1.60;99.90;;;;;;5084286;28;20077;-82
2023/02/09 06:41:24;;;;;;;1999.90;999.90;;;-1.60;99.90;;;;;;5093179;28;20496;-83
2023/02/09 06:43:49;;;;;;;1999.90;999.90;;;-1.60;99.90;;;;;;5093009;28;20117;-75
2023/02/09 06:46:15;;;;;;;1999.90;999.90;;;-1.60;99.90;;;;;;5083610;28;20044;-80
2023/02/09 06:48:40;;;;;;;1999.90;999.90;;;-1.60;99.90;;;;;;5092255;28;20028;-77
2023/02/09 06:51:12;;;;;;;1999.90;999.90;;;-1.60;99.90;;;;;;5090146;28;20103;-81
2023/02/09 06:53:39;;;;;;;1999.90;999.90;;;-1.60;99.90;;;;;;5080187;28;20530;-72
2023/02/09 06:56:06;;;;;;;1999.90;999.90;;;-1.70;99.90;;;;;;5093163;28;20089;-72
2023/02/09 06:58:31;;;;;;;1999.90;999.90;;;-1.70;99.90;;;;;;5091899;28;20100;-79
2023/02/09 07:01:02;;;;;;;1999.90;999.90;;;-1.80;99.90;;;;;;5092395;28;20494;-72
2023/02/09 07:03:29;;;;;;;1999.90;999.90;;;-1.80;99.90;;;;;;5090645;28;20039;-72
2023/02/09 07:05:54;;;;;;;1999.90;999.90;;;-1.90;99.90;;;;;;5086057;28;20034;-80
2023/02/09 07:08:20;;;;;;;1999.90;999.90;;;-1.90;99.90;;;;;;5090225;28;20141;-72
2023/02/09 07:10:45;;;;;;;1999.90;999.90;;;-1.90;99.90;;;;;;5090572;28;20082;-72
2023/02/09 07:13:11;;;;;;;1999.90;999.90;;;-1.90;99.90;;;;;;5092888;28;20373;-80
2023/02/09 07:15:37;;;;;;;1999.90;999.90;;;-1.90;99.90;;;;;;5087780;28;20054;-71
2023/02/09 07:18:03;;;;;;;1999.90;999.90;;;-1.90;99.90;;;;;;5085786;28;20055;-79
2023/02/09 07:20:28;;;;;;;1999.90;999.90;;;-2.00;99.90;;;;;;5090464;28;20500;-73
2023/02/09 07:22:54;;;;;;;1999.90;999.90;;;-2.00;99.90;;;;;;5071966;28;20483;-73
2023/02/09 07:25:20;;;;;;;1999.90;999.90;;;-2.10;99.90;;;;;;5090212;28;20035;-74
2023/02/09 07:27:45;;;;;;;1999.90;999.90;;;-2.10;99.90;;;;;;5090382;28;20035;-80
2023/02/09 07:30:11;;;;;;;1999.90;999.90;;;-2.00;99.90;;;;;;5090546;28;20036;-80
2023/02/09 07:32:38;;;;;;;1999.90;999.90;;;-2.00;99.90;;;;;;5089676;28;20031;-73
2023/02/09 07:35:04;;;;;;;1999.90;999.90;;;-2.00;99.90;;;;;;5089948;28;20031;-73
2023/02/09 07:37:30;;;;;;;1999.90;999.90;;;-1.90;99.90;;;;;;5090449;28;20028;-78
2023/02/09 07:39:55;;;;;;;1999.90;999.90;;;-1.90;99.90;;;;;;5087532;28;20031;-77
2023/02/09 07:42:21;;;;;;;1999.90;999.90;;;-1.80;99.90;;;;;;5067164;28;20446;-77
2023/02/09 07:44:46;;;;;;;1999.90;999.90;;;-1.80;99.90;;;;;;5083935;28;20052;-77
2023/02/09 07:47:12;;;;;;;1999.90;999.90;;;-1.80;99.90;;;;;;5089553;28;20016;-73
2023/02/09 07:49:38;;;;;;;1999.90;999.90;;;-1.70;99.90;;;;;;5085954;28;20792;-73
2023/02/09 07:52:04;;;;;;;1999.90;999.90;;;-1.70;99.90;;;;;;5088839;28;20063;-73
2023/02/09 07:54:29;;;;;;;1999.90;999.90;;;-1.60;99.90;;;;;;5087477;28;20039;-78
2023/02/09 07:56:55;;;;;;;1999.90;999.90;;;-1.60;99.90;;;;;;5084525;28;20039;-78
2023/02/09 07:59:21;;;;;;;1999.90;999.90;;;-1.50;99.90;;;;;;5071109;28;20034;-73
2023/02/09 08:01:46;;;;;;;1999.90;999.90;;;-1.50;99.90;;;;;;5084327;28;20027;-73
2023/02/09 08:04:12;;;;;;;1999.90;999.90;;;-1.40;99.90;;;;;;5082273;28;20081;-80
2023/02/09 08:06:40;;;;;;;1999.90;999.90;;;-1.40;99.90;;;;;;5078491;28;20481;-79
2023/02/09 08:09:07;;;;;;;1999.90;999.90;;;-1.30;99.90;;;;;;5072770;28;20495;-78
2023/02/09 08:12:01;;;;;;;1999.90;999.90;;;-1.20;99.90;;;;;;5061138;28;20028;-73
2023/02/09 08:14:41;;;;;;;1999.90;999.90;;;-1.10;99.90;;;;;;5061130;28;20040;-73
2023/02/09 08:17:21;;;;;;;1999.90;999.90;;;-1.00;99.90;;;;;;5078295;28;20032;-73
2023/02/09 08:20:10;;;;;;;1999.90;999.90;;;-0.80;99.90;;;;;;5083889;28;20341;-78
2023/02/09 08:22:40;;;;;;;1999.90;999.90;;;-0.70;99.90;;;;;;5088265;28;20111;-78
2023/02/09 08:25:07;;;;;;;1999.90;999.90;;;-0.60;99.90;;;;;;5075084;28;20028;-73
2023/02/09 08:27:35;;;;;;;1999.90;999.90;;;-0.40;99.90;;;;;;5081183;28;20435;-73
2023/02/09 08:30:03;;;;;;;1999.90;999.90;;;-0.20;99.90;;;;;;5085644;28;20392;-78
2023/02/09 08:32:28;;;;;;;1999.90;999.90;;;0.00;99.90;;;;;;5089368;28;20078;-78
2023/02/09 08:34:54;;;;;;;1999.90;999.90;;;0.50;99.90;;;;;;5088691;28;20028;-79
2023/02/09 08:37:19;;;;;;;1999.90;999.90;;;1.80;99.90;;;;;;5081454;28;20139;-76
2023/02/09 08:39:45;;;;;;;1999.90;999.90;;;3.30;99.90;;;;;;5088800;28;20594;-73
2023/02/09 08:42:11;;;;;;;1999.90;999.90;;;4.20;99.90;;;;;;5075473;28;20036;-73
2023/02/09 08:44:36;;;;;;;1999.90;999.90;;;4.50;99.90;;;;;;5081845;28;20032;-80
2023/02/09 08:47:02;;;;;;;1999.90;999.90;;;3.60;99.90;;;;;;5062520;28;20107;-73
2023/02/09 08:49:27;;;;;;;1999.90;999.90;;;2.80;99.90;;;;;;5073618;28;20056;-73
2023/02/09 08:51:53;;;;;;;1999.90;999.90;;;2.30;99.90;;;;;;5069295;28;20438;-73
2023/02/09 08:54:19;;;;;;;1999.90;999.90;;;2.00;99.90;;;;;;5070966;28;20087;-73
2023/02/09 08:56:44;;;;;;;1999.90;999.90;;;1.80;99.90;;;;;;5065312;28;20087;-79
2023/02/09 08:59:11;;;;;;;1999.90;999.90;;;1.70;99.90;;;;;;5069010;28;20070;-79
2023/02/09 09:01:39;;;;;;;1999.90;999.90;;;1.90;99.90;;;;;;5069105;28;20063;-80
2023/02/09 09:04:05;;;;;;;1999.90;999.90;;;2.60;99.90;;;;;;5070984;28;20107;-82
2023/02/09 09:06:31;;;;;;;1999.90;999.90;;;2.90;99.90;;;;;;5082165;28;20473;-73
2023/02/09 09:08:57;;;;;;;1999.90;999.90;;;2.80;99.90;;;;;;5076170;28;20074;-80
2023/02/09 09:11:22;;;;;;;1999.90;999.90;;;2.60;99.90;;;;;;5073445;28;20070;-80
2023/02/09 09:13:48;;;;;;;1999.90;999.90;;;2.80;99.90;;;;;;5075543;28;20032;-82
2023/02/09 09:16:19;;;;;;;1999.90;999.90;;;2.90;99.90;;;;;;5076499;28;20104;-73
2023/02/09 09:18:45;;;;;;;1999.90;999.90;;;2.90;99.90;;;;;;5075662;28;20024;-73
2023/02/09 09:21:16;;;;;;;1999.90;999.90;;;2.80;99.90;;;;;;5034657;28;20116;-73
2023/02/09 09:23:43;;;;;;;1999.90;999.90;;;2.80;99.90;;;;;;5068009;28;20137;-73
2023/02/09 09:26:08;;;;;;;1999.90;999.90;;;2.80;99.90;;;;;;5059226;28;20096;-73
2023/02/09 09:28:34;;;;;;;1999.90;999.90;;;3.00;99.90;;;;;;5073464;28;20116;-75
2023/02/09 09:31:10;;;;;;;1999.90;999.90;;;2.90;99.90;;;;;;5068055;28;20108;-73
2023/02/09 09:33:36;;;;;;;1999.90;999.90;;;2.90;99.90;;;;;;5064466;28;20029;-73
2023/02/09 09:36:03;;;;;;;1999.90;999.90;;;3.00;99.90;;;;;;5068706;28;20079;-80
2023/02/09 09:38:29;;;;;;;1999.90;999.90;;;3.30;99.90;;;;;;5058719;28;20063;-79
2023/02/09 09:40:55;;;;;;;1999.90;999.90;;;3.30;99.90;;;;;;5072493;28;20040;-79
2023/02/09 09:43:27;;;;;;;1999.90;999.90;;;3.50;99.90;;;;;;5074322;28;20032;-73
2023/02/09 09:45:53;;;;;;;1999.90;999.90;;;3.80;99.90;;;;;;5071462;28;20526;-73
2023/02/09 09:48:24;;;;;;;1999.90;999.90;;;3.90;99.90;;;;;;5107189;28;20141;-73
2023/02/09 09:50:54;;;;;;;1999.90;999.90;;;4.10;99.90;;;;;;5082836;28;20024;-79
2023/02/09 09:53:32;;;;;;;1999.90;999.90;;;4.30;99.90;;;;;;5079432;28;20028;-80
2023/02/09 09:56:05;;;;;;;1999.90;999.90;;;4.30;99.90;;;;;;5068708;28;20967;-73
2023/02/09 09:58:32;;;;;;;1999.90;999.90;;;4.30;99.90;;;;;;5064286;28;20389;-73
2023/02/09 10:00:58;;;;;;;1999.90;999.90;;;4.50;99.90;;;;;;5094239;28;20028;-73
2023/02/09 10:03:24;;;;;;;1999.90;999.90;;;4.50;99.90;;;;;;5096519;28;20034;-81
2023/02/09 10:05:58;;;;;;;1999.90;999.90;;;4.50;99.90;;;;;;5089825;28;20176;-73
2023/02/09 10:08:30;;;;;;;1999.90;999.90;;;4.60;99.90;;;;;;5067705;28;20441;-73
2023/02/09 10:10:59;;;;;;;1999.90;999.90;;;4.70;99.90;;;;;;5077123;28;20046;-73
2023/02/09 10:13:31;;;;;;;1999.90;999.90;;;4.70;99.90;;;;;;5094175;28;20031;-77
2023/02/09 10:15:57;;;;;;;1999.90;999.90;;;4.70;99.90;;;;;;5064000;28;20042;-78
2023/02/09 10:18:27;;;;;;;1999.90;999.90;;;4.80;99.90;;;;;;5090624;28;20099;-81
2023/02/09 10:21:05;;;;;;;1999.90;999.90;;;4.80;99.90;;;;;;5085303;28;20111;-73
2023/02/09 10:23:46;;;;;;;1999.90;999.90;;;4.80;99.90;;;;;;5089279;28;20058;-73
2023/02/09 10:26:11;;;;;;;1999.90;999.90;;;4.90;99.90;;;;;;5057918;28;20028;-73
2023/02/09 10:28:44;;;;;;;1999.90;999.90;;;4.90;99.90;;;;;;5072107;28;20500;-78
2023/02/09 10:31:22;;;;;;;1999.90;999.90;;;5.00;99.90;;;;;;5080194;28;20459;-81
2023/02/09 10:33:54;;;;;;;1999.90;999.90;;;5.00;99.90;;;;;;5074906;28;20082;-79
2023/02/09 10:36:29;;;;;;;1999.90;999.90;;;5.10;99.90;;;;;;5085949;28;20508;-73
2023/02/09 10:39:10;;;;;;;1999.90;999.90;;;5.30;99.90;;;;;;5091292;28;20042;-73
2023/02/09 10:41:38;;;;;;;1999.90;999.90;;;5.50;99.90;;;;;;5075892;28;20065;-80
2023/02/09 10:44:16;;;;;;;1999.90;999.90;;;5.50;99.90;;;;;;5077054;28;20863;-78
2023/02/09 10:46:41;;;;;;;1999.90;999.90;;;5.60;99.90;;;;;;5078367;28;20045;-80
2023/02/09 10:49:27;;;;;;;1999.90;999.90;;;5.80;99.90;;;;;;5086068;28;20050;-73
2023/02/09 10:52:18;;;;;;;1999.90;999.90;;;5.80;99.90;;;;;;5094044;28;20021;-73
2023/02/09 10:54:58;;;;;;;1999.90;999.90;;;5.80;99.90;;;;;;5065946;28;20079;-73
2023/02/09 10:57:38;;;;;;;1999.90;999.90;;;6.00;99.90;;;;;;5078614;28;20028;-80
2023/02/09 11:00:16;;;;;;;1999.90;999.90;;;6.20;99.90;;;;;;5094016;28;20096;-73
2023/02/09 11:02:50;;;;;;;1999.90;999.90;;;6.20;99.90;;;;;;5091137;28;20031;-73
2023/02/09 11:05:19;;;;;;;1999.90;999.90;;;6.10;99.90;;;;;;5091631;28;20050;-79
2023/02/09 11:07:55;;;;;;;1999.90;999.90;;;6.20;99.90;;;;;;5084787;28;20072;-73
2023/02/09 11:10:21;;;;;;;1999.90;999.90;;;6.40;99.90;;;;;;5088580;28;20075;-80
2023/02/09 11:12:47;;;;;;;1999.90;999.90;;;6.70;99.90;;;;;;5073490;28;20027;-79
2023/02/09 11:15:14;;;;;;;1999.90;999.90;;;6.80;99.90;;;;;;5087548;28;20400;-73
2023/02/09 11:17:49;;;;;;;1999.90;999.90;;;7.00;99.90;;;;;;5064403;28;20032;-80
2023/02/09 11:20:25;;;;;;;1999.90;999.90;;;6.90;99.90;;;;;;5093813;28;20033;-80
2023/02/09 11:23:12;;;;;;;1999.90;999.90;;;7.00;99.90;;;;;;5087823;28;20042;-80
2023/02/09 11:25:48;;;;;;;1999.90;999.90;;;7.10;99.90;;;;;;5081491;28;20063;-80
2023/02/09 11:28:14;;;;;;;1999.90;999.90;;;7.30;99.90;;;;;;5086079;28;20480;-73
2023/02/09 11:31:02;;;;;;;1999.90;999.90;;;7.40;99.90;;;;;;5064173;28;20039;-80
2023/02/09 11:33:49;;;;;;;1999.90;999.90;;;7.50;99.90;;;;;;5075077;28;20534;-79
2023/02/09 11:36:30;;;;;;;1999.90;999.90;;;7.50;99.90;;;;;;5085227;28;20073;-79
2023/02/09 11:39:03;;;;;;;1999.90;999.90;;;7.70;99.90;;;;;;5090163;28;20020;-73
2023/02/09 11:44:41;;;;;;;1999.90;999.90;;;7.90;99.90;;;;;;5081895;28;19920;-80
2023/02/09 11:47:12;;;;;;;1999.90;999.90;;;8.20;99.90;;;;;;5047485;28;20219;-81
2023/02/09 11:49:47;;;;;;;1999.90;999.90;;;8.20;99.90;;;;;;5054567;28;20036;-73
2023/02/09 11:52:23;;;;;;;1999.90;999.90;;;8.30;99.90;;;;;;5065771;28;20512;-73
2023/02/09 11:54:53;;;;;;;1999.90;999.90;;;8.60;99.90;;;;;;5055194;28;20055;-73
2023/02/09 11:57:36;;;;;;;1999.90;999.90;;;8.60;99.90;;;;;;5057693;28;20037;-80
2023/02/09 12:00:04;;;;;;;;;;;8.50;99.90;;;;;;5058392;28;20024;-81
2023/02/09 12:02:35;;;;;;;1999.90;999.90;;;8.60;99.90;;;;;;5045929;28;20003;-73
2023/02/09 12:05:02;;;;;;;1999.90;999.90;;;8.70;99.90;;;;;;5053715;28;20068;-81
2023/02/09 12:07:36;;;;;;;1999.90;999.90;;;8.80;99.90;;;;;;5054044;28;20032;-73
2023/02/09 12:10:29;;;;;;;1999.90;999.90;;;8.90;99.90;;;;;;5067735;28;20162;-81
2023/02/09 12:13:50;;;;;;;1999.90;999.90;;;9.20;99.90;;;;;;5073043;28;20024;-80
2023/02/09 12:16:30;;;;;;;1999.90;999.90;;;9.30;99.90;;;;;;5045601;28;20039;-73
2023/02/09 12:18:56;;;;;;;1999.90;999.90;;;9.50;99.90;;;;;;5071080;28;20094;-73
2023/02/09 12:21:32;;;;;;;1999.90;999.90;;;9.70;99.90;;;;;;5069787;28;20012;-73
2023/02/09 12:23:59;;;;;;;1999.90;999.90;;;9.40;99.90;;;;;;5064638;28;20068;-73